Flag for United Kingdom

Past Weather in 56°27'46.4"N, 2°56'53.5"W, United Kingdom — Yesterday and Last 2 Weeks

Currently: 43 °F. Clear. (Weather station: Leuchars, United Kingdom). See more current weather

Past Weather in 56°27'46.4"N, 2°56'53.5"W — Graph

°F

56°27'46.4"N, 2°56'53.5"W Temperature Yesterday

Maximum temperature yesterday: 55 °F (at 10:50 am)
Minimum temperature yesterday: 45 °F (at 10:50 pm)
Average temperature yesterday: 53 °F

High & Low Weather Summary for the Past Weeks

 TemperatureHumidityPressure
High72 °F (May 10, 3:20 pm)100% (May 6, 1:50 am)30.33 "Hg (May 6, 1:50 am)
Low43 °F (May 21, 12:50 am)52% (May 8, 4:50 pm)29.56 "Hg (May 13, 7:50 pm)
Average55 °F87%29.99 "Hg
* Reported May 6 1:50 am — May 21 1:50 am, 56°27'46.4"N, 2°56'53.5"W. Weather by CustomWeather, © 2024

Note: Actual official high and low records may vary slightly from our data, if they occured in-between our weather recording intervals... More about our weather records

56°27'46.4"N, 2°56'53.5"W Weather History for the Previous 24 Hours

Scroll right to see more
 ConditionsComfort  
Time TempWeatherWind HumidityBarometerVisibility
1:50 am
Tue, May 21
43 °FClear.3 mph93%29.98 "HgN/A
12:50 am43 °FClear.2 mph93%29.98 "HgN/A
11:50 pm
Mon, May 20
45 °FClear.3 mph87%29.98 "HgN/A
10:50 pm45 °FClear.2 mph93%29.98 "HgN/A
9:50 pm50 °FClear.5 mph76%30.01 "HgN/A
8:50 pm54 °FSunny.8 mph72%30.01 "HgN/A
7:50 pm54 °FClear.8 mph72%30.01 "HgN/A
6:50 pm55 °FSunny.9 mph67%30.01 "HgN/A
5:50 pm55 °FSunny.10 mph67%30.01 "HgN/A
4:50 pm55 °FSunny.9 mph67%30.01 "HgN/A
4:20 pm55 °FPassing clouds.8 mph67%30.01 "HgN/A
3:50 pm55 °FSunny.8 mph67%30.04 "HgN/A
2:50 pm55 °FPassing clouds.9 mph67%30.04 "HgN/A
1:50 pm55 °FPassing clouds.9 mph77%30.07 "HgN/A
1:20 pm55 °FClear.10 mph72%30.07 "HgN/A
12:50 pm55 °FPassing clouds.9 mph77%30.07 "HgN/A
11:50 am55 °FPassing clouds.10 mph77%30.07 "HgN/A
10:50 am55 °FScattered clouds.10 mph72%30.07 "HgN/A
9:50 am54 °FOvercast.8 mph82%30.07 "HgN/A
8:50 am54 °FMostly cloudy.9 mph82%30.07 "HgN/A
7:50 am52 °FPartly sunny.8 mph88%30.07 "HgN/A
6:50 am52 °FPartly sunny.6 mph94%30.07 "HgN/A
5:50 am52 °FPartly sunny.7 mph94%30.07 "HgN/A
4:50 am52 °FPartly sunny.6 mph94%30.07 "HgN/A
3:50 am52 °FPassing clouds.6 mph94%30.07 "HgN/A
Weather by CustomWeather, © 2024

See weather overview